Latest Weather Observations for Casterton

IDV60801

Issued at 3:02 pm EDT Monday 26 January 2015 (issued every 30 minutes, with the page automatically refreshed every 10 minutes)

About weather observations | Map of weather stations | Latest weather observations for VIC | Other Formats
Station Details ID: 090182 Name: CASTERTON Lat: -37.58 Lon: 141.33 Height: 130.6 m
Data from the previous 72 hours. | See also: Recent months at Casterton
Date/Time
EDT
Temp
°C
App
Temp
°C
Dew
Point
Rel
Hum
%
Delta-T
°C
Wind Press
QNH
hPa
Press
MSL
hPa
Rain
since 9 am
mm
Dir
 
Spd
km/h
Gust
km/h
Spd
kts
Gust
kts
26/03:00pm 15.8 10.9 7.0 56 4.4 S 22 30 12 16 1017.2 1016.7 0.0
26/02:30pm 16.1 11.5 6.5 53 4.7 S 20 28 11 15 1017.4 - 0.0
26/02:00pm 17.4 12.9 6.3 48 5.5 S 19 26 10 14 1017.3 - 0.0
26/01:30pm 17.5 13.2 7.0 50 5.3 SW 19 24 10 13 1017.6 - 0.0
26/01:00pm 16.3 12.4 7.3 55 4.5 SW 17 26 9 14 1017.9 - 0.0
26/12:30pm 15.2 11.1 6.0 54 4.5 SSW 17 24 9 13 1018.0 - 0.0
26/12:00pm 15.8 11.6 7.3 57 4.2 SSW 19 28 10 15 1018.1 1017.6 0.0
26/11:30am 16.7 12.3 5.0 46 5.6 S 17 24 9 13 1018.2 - 0.0
26/11:00am 15.6 11.5 6.1 53 4.6 SW 17 26 9 14 1018.4 - 0.0
26/10:30am 14.6 12.1 6.7 59 3.9 SW 9 17 5 9 1018.5 - 0.0
26/10:00am 14.3 11.4 6.4 59 3.8 SW 11 15 6 8 1018.4 - 0.0
26/09:30am 14.6 12.4 6.4 58 4.0 SW 7 17 4 9 1018.2 - 0.0
26/09:00am 13.3 11.7 8.2 71 2.5 W 6 7 3 4 1018.1 1017.6 0.0
26/08:30am 11.7 10.9 10.9 95 0.4 WNW 6 9 3 5 1017.8 - 0.0
26/08:00am 9.1 8.9 9.0 99 0.0 CALM 0 0 0 0 1017.4 - 0.0
26/07:30am 7.1 6.4 7.0 99 0.0 CALM 0 0 0 0 1016.8 - 0.0
26/07:00am 5.9 4.9 5.8 99 0.0 CALM 0 0 0 0 1016.6 - 0.0
26/06:30am 5.6 4.5 5.3 98 0.1 CALM 0 0 0 0 1016.4 - 0.0
26/06:00am 6.5 5.6 6.2 98 0.1 CALM 0 0 0 0 1016.0 1015.5 0.0
26/05:30am 6.6 5.8 6.3 98 0.1 CALM 0 0 0 0 1015.6 - 0.0
26/05:00am 7.3 6.6 7.0 98 0.1 CALM 0 0 0 0 1015.3 - 0.0
26/04:30am 7.4 6.0 7.1 98 0.1 WNW 4 7 2 4 1015.3 - 0.0
26/04:00am 8.4 8.0 8.1 98 0.1 CALM 0 0 0 0 1015.0 - 0.0
26/03:30am 8.5 6.8 8.2 98 0.1 W 7 9 4 5 1015.3 - 0.0
26/03:00am 8.9 7.3 8.6 98 0.1 WNW 7 11 4 6 1015.0 1014.5 0.0
26/02:30am 10.2 9.9 8.8 91 0.7 CALM 0 0 0 0 1014.9 - 0.0
26/02:00am 10.4 9.6 9.5 94 0.5 SW 4 9 2 5 1015.0 - 0.0
26/01:30am 10.4 8.2 9.5 94 0.5 SW 11 15 6 8 1015.0 - 0.0
26/01:00am 9.3 7.7 8.8 97 0.2 W 7 9 4 5 1014.8 - 0.0
26/12:30am 9.8 8.1 8.2 90 0.8 W 7 9 4 5 1014.6 - 0.0
26/12:00am 10.9 9.1 8.0 82 1.4 W 7 9 4 5 1014.7 1014.2 0.0
 
Date/Time
EDT
Temp
°C
App
Temp
°C
Dew
Point
Rel
Hum
%
Delta-T
°C
Wind Press
QNH
hPa
Press
MSL
hPa
Rain
since 9 am
mm
Dir
 
Spd
km/h
Gust
km/h
Spd
kts
Gust
kts
25/11:30pm 11.6 9.8 7.9 78 1.8 SW 7 9 4 5 1014.7 - 0.0
25/11:00pm 11.9 9.3 7.6 75 2.1 SSW 11 17 6 9 1014.8 - 0.0
25/10:30pm 11.9 10.0 7.6 75 2.1 WSW 7 9 4 5 1014.6 - 0.0
25/10:00pm 11.5 9.4 6.6 72 2.3 WSW 7 9 4 5 1014.3 - 0.0
25/09:30pm 12.0 9.4 6.3 68 2.7 SW 9 13 5 7 1014.0 - 0.0
25/09:00pm 13.6 9.2 6.7 63 3.3 SW 19 28 10 15 1013.8 1013.3 0.0
25/08:30pm 14.1 10.8 6.5 60 3.7 WSW 13 20 7 11 1013.5 - 0.0
25/08:00pm 14.2 10.0 5.8 57 4.0 SW 17 24 9 13 1013.2 - 0.0
25/07:30pm 14.6 10.1 6.2 57 4.1 SSW 19 28 10 15 1013.0 - 0.0
25/07:00pm 15.6 10.5 6.1 53 4.6 SW 22 33 12 18 1012.7 - 0.0
25/06:30pm 14.4 8.9 7.5 63 3.4 SSW 26 43 14 23 1012.7 - 0.0
25/06:00pm 17.1 11.8 6.6 50 5.2 SW 24 39 13 21 1012.2 1011.7 0.0
25/05:30pm 15.0 9.1 7.5 61 3.7 WSW 28 44 15 24 1012.2 - 0.0
25/05:00pm 16.5 9.8 5.8 49 5.2 W 30 44 16 24 1011.9 - 0.0
25/04:31pm 16.7 10.6 6.5 51 5.0 WSW 28 48 15 26 1011.5 - 0.0
25/04:30pm 17.1 10.8 5.7 47 5.6 WSW 28 41 15 22 1011.4 - 0.0
25/04:00pm 18.2 11.7 4.7 41 6.5 W 28 43 15 23 1011.1 - 0.0
25/03:30pm 18.1 11.6 6.6 47 5.7 WSW 30 50 16 27 1011.4 - 0.0
25/03:20pm 17.5 10.9 6.1 47 5.6 WSW 30 50 16 27 1011.2 - 0.0
25/03:00pm 18.0 11.7 5.9 45 6.0 WSW 28 43 15 23 1011.3 1010.8 0.0
25/02:31pm 19.2 12.4 6.7 44 6.3 W 32 50 17 27 1011.5 - 0.0
25/02:30pm 18.7 11.5 5.9 43 6.3 WSW 33 50 18 27 1011.5 - 0.0
25/02:01pm 18.2 11.2 6.1 45 6.0 W 32 50 17 27 1011.3 - 0.0
25/02:00pm 18.5 11.5 6.7 46 5.9 W 33 50 18 27 1011.2 - 0.0
25/01:30pm 18.4 11.5 6.3 45 6.0 WSW 32 50 17 27 1011.0 - 0.0
25/01:22pm 18.8 11.5 4.6 39 6.9 WSW 32 50 17 27 1011.0 - 0.0
25/01:00pm 18.0 12.1 7.4 50 5.4 WSW 28 44 15 24 1011.2 - 0.0
25/12:46pm 15.9 9.9 7.1 56 4.4 W 28 46 15 25 1011.3 - 0.0
25/12:30pm 16.3 12.0 7.0 54 4.6 W 19 37 10 20 1011.2 - 0.0
25/12:03pm 14.8 8.7 8.1 64 3.4 WSW 30 50 16 27 1011.2 - 0.0
25/12:00pm 14.4 8.5 7.5 63 3.4 W 28 39 15 21 1011.1 1010.6 0.0
25/11:30am 15.4 10.4 7.9 61 3.8 W 24 35 13 19 1010.6 - 0.0
25/11:00am 16.1 10.8 8.3 60 4.0 W 26 41 14 22 1010.5 - 0.0
25/10:30am 14.3 10.1 8.3 67 3.0 W 20 30 11 16 1010.7 - 0.0
25/10:00am 14.3 10.1 8.3 67 3.0 W 20 28 11 15 1010.2 - 0.0
25/09:30am 13.9 9.9 8.9 72 2.5 WSW 20 30 11 16 1009.9 - 0.0
25/09:00am 13.2 10.1 8.9 75 2.2 W 15 22 8 12 1009.6 1009.1 2.8
25/08:30am 12.3 9.8 9.7 84 1.3 W 13 20 7 11 1009.1 - 2.8
25/08:00am 11.1 9.1 10.2 94 0.5 W 11 15 6 8 1008.6 - 2.8
25/07:30am 10.2 8.1 9.9 98 0.2 W 11 19 6 10 1008.1 - 2.8
25/07:00am 9.0 7.0 8.7 98 0.1 WNW 9 13 5 7 1007.8 - 2.8
25/06:30am 9.2 6.9 8.9 98 0.1 W 11 13 6 7 1007.5 - 2.8
25/06:00am 9.7 7.5 9.4 98 0.2 W 11 15 6 8 1007.3 1006.8 2.8
25/05:30am 10.1 7.6 9.8 98 0.2 W 13 20 7 11 1007.0 - 2.6
25/05:00am 10.4 8.0 10.1 98 0.2 W 13 19 7 10 1006.9 - 2.6
25/04:30am 10.4 8.4 10.1 98 0.2 W 11 15 6 8 1006.5 - 2.6
25/04:00am 11.1 9.3 10.8 98 0.2 W 11 17 6 9 1006.6 - 2.6
25/03:30am 11.6 9.5 11.3 98 0.2 W 13 20 7 11 1006.3 - 2.6
25/03:00am 12.2 10.3 11.9 98 0.2 W 13 19 7 10 1006.4 1005.9 2.6
25/02:30am 12.5 9.6 12.2 98 0.2 WSW 19 30 10 16 1006.4 - 2.6
25/02:00am 13.1 11.2 12.9 99 0.1 WSW 15 22 8 12 1006.1 - 2.6
25/01:30am 13.5 11.3 13.3 99 0.1 W 17 24 9 13 1006.0 - 2.6
25/01:00am 13.6 11.8 13.4 99 0.1 WNW 15 24 8 13 1005.8 - 1.6
25/12:30am 13.7 12.7 13.5 99 0.1 WNW 11 15 6 8 1005.5 - 1.4
25/12:00am 13.6 11.4 13.3 98 0.2 W 17 30 9 16 1005.6 1005.0 1.4
 
Date/Time
EDT
Temp
°C
App
Temp
°C
Dew
Point
Rel
Hum
%
Delta-T
°C
Wind Press
QNH
hPa
Press
MSL
hPa
Rain
since 9 am
mm
Dir
 
Spd
km/h
Gust
km/h
Spd
kts
Gust
kts
24/11:30pm 14.3 12.3 14.0 98 0.2 W 17 26 9 14 1005.5 - 0.8
24/11:00pm 14.5 12.2 14.2 98 0.2 W 19 28 10 15 1005.3 - 0.6
24/10:30pm 15.0 12.7 14.7 98 0.2 WNW 20 30 11 16 1005.4 - 0.6
24/10:00pm 16.8 13.9 12.9 78 2.2 WSW 20 32 11 17 1004.7 - 0.0
24/09:30pm 18.3 14.8 10.9 62 4.0 WNW 20 28 11 15 1004.1 - 0.0
24/09:00pm 18.4 14.5 10.7 61 4.2 WNW 22 39 12 21 1003.8 1003.3 0.0
24/08:30pm 19.6 15.8 9.8 53 5.3 WNW 20 32 11 17 1003.7 - 0.0
24/08:12pm 20.3 14.8 9.2 49 5.9 W 28 48 15 26 1003.5 - 0.0
24/08:00pm 20.4 16.0 9.0 48 6.1 WNW 22 33 12 18 1003.4 - 0.0
24/07:30pm 21.1 14.7 9.4 47 6.3 WNW 33 46 18 25 1003.3 - 0.0
24/07:00pm 21.7 15.9 9.6 46 6.5 WNW 30 43 16 23 1003.3 - 0.0
24/06:30pm 22.3 16.7 8.8 42 7.2 W 28 39 15 21 1003.1 - 0.0
24/06:00pm 22.6 17.4 9.0 42 7.3 WNW 26 44 14 24 1003.1 1002.6 0.0
24/05:30pm 23.8 19.1 9.4 40 7.9 WNW 24 39 13 21 1003.2 - 0.0
24/05:00pm 23.4 17.5 9.0 40 7.8 WNW 30 50 16 27 1003.4 - 0.0
24/04:53pm 23.6 18.1 9.2 40 7.8 WNW 28 50 15 27 1003.3 - 0.0
24/04:30pm 22.9 16.7 9.3 42 7.4 W 32 43 17 23 1003.5 - 0.0
24/04:05pm 23.9 18.6 9.9 41 7.7 WNW 28 52 15 28 1003.6 - 0.0
24/04:00pm 24.4 20.0 10.3 41 7.8 WNW 24 41 13 22 1003.6 - 0.0
24/03:47pm 23.4 17.6 9.4 41 7.6 WNW 30 50 16 27 1003.7 - 0.0
24/03:30pm 23.5 17.7 9.5 41 7.6 WNW 30 44 16 24 1003.9 - 0.0
24/03:22pm 22.7 16.4 9.8 44 7.0 NW 33 52 18 28 1003.9 - 0.0
24/03:00pm 23.3 18.2 10.7 45 7.0 WNW 28 43 15 23 1004.1 1003.6 0.0
24/02:35pm 23.7 18.5 11.7 47 6.8 WNW 30 48 16 26 1004.2 - 0.0
24/02:30pm 22.5 16.7 10.9 48 6.5 WNW 32 48 17 26 1004.4 - 0.0
24/02:01pm 23.1 17.7 10.9 46 6.8 WNW 30 48 16 26 1004.6 - 0.0
24/02:00pm 23.2 17.4 10.9 46 6.9 WNW 32 48 17 26 1004.6 - 0.0
24/01:33pm 22.4 16.3 9.9 45 6.8 NW 32 50 17 27 1004.8 - 0.0
24/01:30pm 22.1 15.8 9.6 45 6.8 NW 33 50 18 27 1004.8 - 0.0
24/01:25pm 22.7 16.6 10.5 46 6.7 WNW 33 50 18 27 1004.7 - 0.0
24/01:00pm 22.3 18.5 9.8 45 6.8 WNW 20 30 11 16 1005.1 - 0.0
24/12:30pm 21.8 16.5 9.7 46 6.6 NW 28 43 15 23 1005.5 - 0.0
24/12:00pm 21.0 17.3 9.6 48 6.2 W 19 28 10 15 1005.7 1005.1 0.0
24/11:30am 19.9 15.9 8.3 47 6.1 NW 19 28 10 15 1006.0 - 0.0
24/11:00am 19.6 16.2 9.2 51 5.5 NW 17 26 9 14 1006.3 - 0.0
24/10:30am 18.1 15.3 8.7 54 4.9 NW 13 22 7 12 1006.7 - 0.0
24/10:00am 17.1 14.3 8.5 57 4.4 WNW 13 24 7 13 1007.0 - 0.0
24/09:30am 15.8 13.5 11.6 76 2.3 WNW 15 26 8 14 1007.2 - 0.0
24/09:00am 14.9 13.4 13.1 89 1.0 WNW 13 19 7 10 1007.3 1006.8 0.0
24/08:30am 13.1 12.3 12.8 98 0.2 NW 9 11 5 6 1006.9 - 0.0
24/08:00am 11.4 10.5 11.2 99 0.1 NW 7 11 4 6 1007.0 - 0.0
24/07:30am 8.9 8.3 8.8 99 0.0 NW 2 6 1 3 1006.8 - 0.0
24/07:00am 7.7 7.1 7.6 99 0.0 CALM 0 0 0 0 1006.8 - 0.0
24/06:30am 8.0 7.5 7.9 99 0.0 CALM 0 2 0 1 1006.9 - 0.0
24/06:00am 7.6 6.3 7.5 99 0.0 NW 4 6 2 3 1006.8 1006.3 0.0
24/05:30am 7.5 6.5 7.4 99 0.0 W 2 6 1 3 1006.6 - 0.0
24/05:00am 7.7 7.1 7.6 99 0.0 CALM 0 6 0 3 1006.6 - 0.0
24/04:30am 8.6 8.3 8.5 99 0.0 CALM 0 0 0 0 1006.3 - 0.0
24/04:00am 8.3 7.8 8.0 98 0.1 CALM 0 0 0 0 1006.5 - 0.0
24/03:30am 8.7 8.3 8.4 98 0.1 CALM 0 0 0 0 1006.7 - 0.0
24/03:00am 8.9 8.6 8.6 98 0.1 CALM 0 0 0 0 1007.0 1006.5 0.0
24/02:30am 9.6 9.5 9.3 98 0.1 CALM 0 0 0 0 1007.3 - 0.0
24/02:00am 9.8 9.7 9.5 98 0.2 CALM 0 2 0 1 1007.5 - 0.0
24/01:30am 10.5 9.8 10.2 98 0.2 S 4 6 2 3 1007.9 - 0.0
24/01:00am 11.4 11.8 11.1 98 0.2 CALM 0 0 0 0 1008.2 - 0.0
24/12:30am 11.7 12.1 11.4 98 0.2 CALM 0 0 0 0 1008.2 - 0.0
24/12:00am 11.4 10.6 11.1 98 0.2 SSE 6 7 3 4 1008.5 1008.0 0.0
 
Date/Time
EDT
Temp
°C
App
Temp
°C
Dew
Point
Rel
Hum
%
Delta-T
°C
Wind Press
QNH
hPa
Press
MSL
hPa
Rain
since 9 am
mm
Dir
 
Spd
km/h
Gust
km/h
Spd
kts
Gust
kts
23/11:30pm 12.3 11.5 10.9 91 0.7 SSW 6 9 3 5 1008.8 - 0.0
23/11:00pm 13.1 11.7 11.0 87 1.1 S 9 9 5 5 1008.7 - 0.0
23/10:30pm 13.7 12.2 10.7 82 1.6 S 9 13 5 7 1008.7 - 0.0
23/10:00pm 14.6 12.8 11.0 79 1.9 S 11 15 6 8 1008.7 - 0.0
23/09:30pm 15.3 13.1 10.9 75 2.4 S 13 17 7 9 1008.3 - 0.0
23/09:00pm 16.2 14.0 10.7 70 3.0 S 13 17 7 9 1008.1 1007.6 0.0
23/08:30pm 17.4 14.4 10.8 65 3.6 S 17 20 9 11 1008.0 - 0.0
23/08:00pm 18.5 15.5 10.6 60 4.3 SSW 17 28 9 15 1007.7 - 0.0
23/07:30pm 19.9 16.7 11.1 57 4.8 SSW 19 28 10 15 1007.6 - 0.0
23/07:00pm 19.9 16.7 11.4 58 4.7 SSW 19 28 10 15 1007.6 - 0.0
23/06:30pm 19.9 16.4 12.2 61 4.3 S 22 32 12 17 1007.5 - 0.0
23/06:00pm 20.9 17.0 12.1 57 5.0 S 24 33 13 18 1007.6 1007.1 0.0
23/05:30pm 21.6 17.3 12.2 55 5.3 S 26 35 14 19 1007.5 - 0.0
23/05:00pm 24.0 20.8 12.0 47 6.9 WSW 20 33 11 18 1007.3 - 0.0
23/04:30pm 23.8 20.2 11.8 47 6.8 SSW 22 33 12 18 1007.2 - 0.0
23/04:00pm 24.4 20.2 9.9 40 8.0 WSW 22 33 12 18 1007.2 - 0.0
23/03:30pm 24.8 21.3 10.3 40 8.1 WSW 19 35 10 19 1007.3 - 0.0

Other Formats:

Comma delimited format used in spreadsheet applications
http://www.bom.gov.au/fwo/IDV60801/IDV60801.95825.axf

JavaScript Object Notation format (JSON) in row-major order
http://www.bom.gov.au/fwo/IDV60801/IDV60801.95825.json